FYLZ/LUD METAR and TAF weather

Enter ICAO airport designator
Station Type Date Time Source
FYLZ METAR 2021/07/27 22:00 UTC NOAA

FYLZ 272200Z AUTO 19007KT //// // ////// 13/10 Q1019


Station Type Date Time Source
FYLZ Decoded METAR 2021/07/27 22:00 UTC NOAA

Luderitz / Diaz Point, Namibia (FYLZ) 26-41S 015-15E
Jul 27, 2021 - 06:00 PM EDT / 2021.07.27 2200 UTC
Wind: from the S (190 degrees) at 8 MPH (7 KT):0
Temperature: 55 F (13 C)
Dew Point: 50 F (10 C)
Relative Humidity: 81%
Pressure (altimeter): 30.09 in. Hg (1019 hPa)
ob: FYLZ 272200Z AUTO 19007KT //// // ////// 13/10 Q1019
cycle: 22

Station Type Date Time Source
FYLZ TAF 2014/11/15 15:19 UTC NOAA

TAF FYLZ 151400Z 1515/1524 18015G28KT CAVOK
BECMG 1518/1520 16020KT

Example: see airport list